sensor_id;sensor_type;location;lat;lon;timestamp;P1;durP1;ratioP1;P2;durP2;ratioP2
58354;SDS011;44160;49.080;19.302;2023-05-10T00:00:21;7.88;;;4.15;;
58354;SDS011;44160;49.080;19.302;2023-05-10T00:02:48;10.30;;;4.55;;
58354;SDS011;44160;49.080;19.302;2023-05-10T00:05:14;5.88;;;3.55;;
58354;SDS011;44160;49.080;19.302;2023-05-10T00:07:40;8.45;;;3.70;;
58354;SDS011;44160;49.080;19.302;2023-05-10T00:10:09;9.25;;;4.07;;
58354;SDS011;44160;49.080;19.302;2023-05-10T00:12:35;6.28;;;3.85;;
58354;SDS011;44160;49.080;19.302;2023-05-10T00:15:01;6.15;;;3.47;;
58354;SDS011;44160;49.080;19.302;2023-05-10T00:17:28;7.80;;;3.65;;
58354;SDS011;44160;49.080;19.302;2023-05-10T00:19:54;7.13;;;4.00;;
58354;SDS011;44160;49.080;19.302;2023-05-10T00:22:20;6.53;;;3.42;;
58354;SDS011;44160;49.080;19.302;2023-05-10T00:24:46;5.60;;;3.03;;
58354;SDS011;44160;49.080;19.302;2023-05-10T00:27:12;7.53;;;3.40;;
58354;SDS011;44160;49.080;19.302;2023-05-10T00:29:38;5.00;;;2.95;;
58354;SDS011;44160;49.080;19.302;2023-05-10T00:32:04;5.25;;;2.83;;
58354;SDS011;44160;49.080;19.302;2023-05-10T00:34:31;5.57;;;3.55;;
58354;SDS011;44160;49.080;19.302;2023-05-10T00:36:57;8.32;;;4.03;;
58354;SDS011;44160;49.080;19.302;2023-05-10T00:39:23;8.68;;;4.75;;
58354;SDS011;44160;49.080;19.302;2023-05-10T00:41:49;8.10;;;4.07;;
58354;SDS011;44160;49.080;19.302;2023-05-10T00:44:16;6.57;;;3.30;;
58354;SDS011;44160;49.080;19.302;2023-05-10T00:46:43;6.82;;;3.58;;
58354;SDS011;44160;49.080;19.302;2023-05-10T00:49:09;8.38;;;4.35;;
58354;SDS011;44160;49.080;19.302;2023-05-10T00:51:36;18.05;;;10.57;;
58354;SDS011;44160;49.080;19.302;2023-05-10T00:54:02;23.58;;;12.38;;
58354;SDS011;44160;49.080;19.302;2023-05-10T00:56:28;15.45;;;9.88;;
58354;SDS011;44160;49.080;19.302;2023-05-10T00:58:55;24.23;;;12.50;;
58354;SDS011;44160;49.080;19.302;2023-05-10T01:01:22;10.10;;;5.85;;
58354;SDS011;44160;49.080;19.302;2023-05-10T01:03:48;7.35;;;4.45;;
58354;SDS011;44160;49.080;19.302;2023-05-10T01:06:14;6.95;;;3.90;;
58354;SDS011;44160;49.080;19.302;2023-05-10T01:08:40;6.47;;;4.25;;
58354;SDS011;44160;49.080;19.302;2023-05-10T01:11:06;6.75;;;4.10;;
58354;SDS011;44160;49.080;19.302;2023-05-10T01:13:33;8.18;;;4.35;;
58354;SDS011;44160;49.080;19.302;2023-05-10T01:16:02;8.77;;;4.25;;
58354;SDS011;44160;49.080;19.302;2023-05-10T01:18:29;5.05;;;3.20;;
58354;SDS011;44160;49.080;19.302;2023-05-10T01:26:16;8.77;;;4.78;;
58354;SDS011;44160;49.080;19.302;2023-05-10T01:31:21;6.97;;;4.55;;
58354;SDS011;44160;49.080;19.302;2023-05-10T01:36:27;9.13;;;5.18;;
58354;SDS011;44160;49.080;19.302;2023-05-10T01:39:01;7.18;;;3.75;;
58354;SDS011;44160;49.080;19.302;2023-05-10T01:46:39;8.30;;;4.57;;
58354;SDS011;44160;49.080;19.302;2023-05-10T01:49:09;6.68;;;4.30;;
58354;SDS011;44160;49.080;19.302;2023-05-10T01:54:03;6.93;;;4.18;;
58354;SDS011;44160;49.080;19.302;2023-05-10T01:56:31;5.90;;;4.03;;
58354;SDS011;44160;49.080;19.302;2023-05-10T01:58:58;10.27;;;4.20;;
58354;SDS011;44160;49.080;19.302;2023-05-10T02:01:26;6.85;;;4.13;;
58354;SDS011;44160;49.080;19.302;2023-05-10T02:03:52;7.00;;;4.15;;
58354;SDS011;44160;49.080;19.302;2023-05-10T02:06:19;9.82;;;3.70;;
58354;SDS011;44160;49.080;19.302;2023-05-10T02:08:46;6.95;;;3.55;;
58354;SDS011;44160;49.080;19.302;2023-05-10T02:11:13;6.68;;;4.03;;
58354;SDS011;44160;49.080;19.302;2023-05-10T02:13:39;11.27;;;6.47;;
58354;SDS011;44160;49.080;19.302;2023-05-10T02:16:05;9.95;;;4.03;;
58354;SDS011;44160;49.080;19.302;2023-05-10T02:18:33;8.75;;;4.45;;
58354;SDS011;44160;49.080;19.302;2023-05-10T02:20:59;5.63;;;4.03;;
58354;SDS011;44160;49.080;19.302;2023-05-10T02:23:25;13.05;;;6.75;;
58354;SDS011;44160;49.080;19.302;2023-05-10T02:25:52;8.30;;;5.50;;
58354;SDS011;44160;49.080;19.302;2023-05-10T02:28:19;5.95;;;4.03;;
58354;SDS011;44160;49.080;19.302;2023-05-10T02:30:46;5.93;;;3.90;;
58354;SDS011;44160;49.080;19.302;2023-05-10T02:33:13;7.07;;;4.25;;
58354;SDS011;44160;49.080;19.302;2023-05-10T02:35:39;8.63;;;3.70;;
58354;SDS011;44160;49.080;19.302;2023-05-10T02:38:05;6.18;;;4.32;;
58354;SDS011;44160;49.080;19.302;2023-05-10T02:40:32;9.52;;;3.70;;
58354;SDS011;44160;49.080;19.302;2023-05-10T02:42:59;7.35;;;4.00;;
58354;SDS011;44160;49.080;19.302;2023-05-10T02:45:30;7.78;;;3.67;;
58354;SDS011;44160;49.080;19.302;2023-05-10T02:47:57;6.38;;;4.10;;
58354;SDS011;44160;49.080;19.302;2023-05-10T02:50:25;5.40;;;3.90;;
58354;SDS011;44160;49.080;19.302;2023-05-10T02:52:54;7.63;;;4.07;;
58354;SDS011;44160;49.080;19.302;2023-05-10T02:55:22;6.38;;;4.03;;
58354;SDS011;44160;49.080;19.302;2023-05-10T02:57:52;7.38;;;4.22;;
58354;SDS011;44160;49.080;19.302;2023-05-10T03:00:20;7.80;;;4.10;;
58354;SDS011;44160;49.080;19.302;2023-05-10T03:02:46;8.10;;;4.30;;
58354;SDS011;44160;49.080;19.302;2023-05-10T03:05:12;8.90;;;4.45;;
58354;SDS011;44160;49.080;19.302;2023-05-10T03:07:38;10.32;;;4.43;;
58354;SDS011;44160;49.080;19.302;2023-05-10T03:10:05;14.20;;;4.72;;
58354;SDS011;44160;49.080;19.302;2023-05-10T03:12:33;9.05;;;4.00;;
58354;SDS011;44160;49.080;19.302;2023-05-10T03:15:07;7.30;;;4.18;;
58354;SDS011;44160;49.080;19.302;2023-05-10T03:20:29;7.05;;;4.00;;
58354;SDS011;44160;49.080;19.302;2023-05-10T03:22:54;8.77;;;5.13;;
58354;SDS011;44160;49.080;19.302;2023-05-10T03:25:21;10.20;;;5.50;;
58354;SDS011;44160;49.080;19.302;2023-05-10T03:27:49;8.95;;;5.15;;
58354;SDS011;44160;49.080;19.302;2023-05-10T03:30:15;12.40;;;4.68;;
58354;SDS011;44160;49.080;19.302;2023-05-10T03:32:45;6.97;;;4.88;;
58354;SDS011;44160;49.080;19.302;2023-05-10T03:35:12;9.88;;;4.82;;
58354;SDS011;44160;49.080;19.302;2023-05-10T03:37:39;9.98;;;5.50;;
58354;SDS011;44160;49.080;19.302;2023-05-10T03:40:05;8.38;;;5.18;;
58354;SDS011;44160;49.080;19.302;2023-05-10T03:42:32;7.53;;;4.90;;
58354;SDS011;44160;49.080;19.302;2023-05-10T03:44:58;11.93;;;5.22;;
58354;SDS011;44160;49.080;19.302;2023-05-10T03:47:24;10.38;;;4.78;;
58354;SDS011;44160;49.080;19.302;2023-05-10T03:49:50;22.42;;;8.25;;
58354;SDS011;44160;49.080;19.302;2023-05-10T03:52:16;17.48;;;6.22;;
58354;SDS011;44160;49.080;19.302;2023-05-10T03:54:43;8.73;;;5.60;;
58354;SDS011;44160;49.080;19.302;2023-05-10T03:57:09;8.48;;;4.93;;
58354;SDS011;44160;49.080;19.302;2023-05-10T03:59:35;9.45;;;6.05;;
58354;SDS011;44160;49.080;19.302;2023-05-10T04:02:01;14.02;;;7.03;;
58354;SDS011;44160;49.080;19.302;2023-05-10T04:04:27;15.73;;;5.97;;
58354;SDS011;44160;49.080;19.302;2023-05-10T04:06:53;17.20;;;7.00;;
58354;SDS011;44160;49.080;19.302;2023-05-10T04:09:19;15.52;;;6.15;;
58354;SDS011;44160;49.080;19.302;2023-05-10T04:11:45;32.13;;;13.85;;
58354;SDS011;44160;49.080;19.302;2023-05-10T04:14:12;11.10;;;5.72;;
58354;SDS011;44160;49.080;19.302;2023-05-10T04:16:38;14.27;;;5.55;;
58354;SDS011;44160;49.080;19.302;2023-05-10T04:19:06;14.73;;;5.00;;
58354;SDS011;44160;49.080;19.302;2023-05-10T04:21:32;18.52;;;7.35;;
58354;SDS011;44160;49.080;19.302;2023-05-10T04:23:58;12.63;;;5.35;;
58354;SDS011;44160;49.080;19.302;2023-05-10T04:26:24;8.52;;;5.30;;
58354;SDS011;44160;49.080;19.302;2023-05-10T04:28:50;15.57;;;7.88;;
58354;SDS011;44160;49.080;19.302;2023-05-10T04:31:17;6.10;;;4.40;;
58354;SDS011;44160;49.080;19.302;2023-05-10T04:33:43;28.70;;;8.07;;
58354;SDS011;44160;49.080;19.302;2023-05-10T04:36:09;22.02;;;7.90;;
58354;SDS011;44160;49.080;19.302;2023-05-10T04:38:35;6.97;;;4.55;;
58354;SDS011;44160;49.080;19.302;2023-05-10T04:41:05;8.20;;;5.78;;
58354;SDS011;44160;49.080;19.302;2023-05-10T04:43:31;10.43;;;5.97;;
58354;SDS011;44160;49.080;19.302;2023-05-10T04:45:57;9.88;;;4.97;;
58354;SDS011;44160;49.080;19.302;2023-05-10T04:48:23;6.68;;;3.85;;
58354;SDS011;44160;49.080;19.302;2023-05-10T04:50:49;10.63;;;3.08;;
58354;SDS011;44160;49.080;19.302;2023-05-10T04:53:15;7.43;;;3.53;;
58354;SDS011;44160;49.080;19.302;2023-05-10T04:55:41;5.63;;;3.22;;
58354;SDS011;44160;49.080;19.302;2023-05-10T04:58:07;9.20;;;3.70;;
58354;SDS011;44160;49.080;19.302;2023-05-10T05:00:34;7.38;;;3.95;;
58354;SDS011;44160;49.080;19.302;2023-05-10T05:03:00;10.90;;;4.95;;
58354;SDS011;44160;49.080;19.302;2023-05-10T05:05:26;10.35;;;3.88;;
58354;SDS011;44160;49.080;19.302;2023-05-10T05:07:52;9.88;;;4.20;;
58354;SDS011;44160;49.080;19.302;2023-05-10T05:10:18;8.43;;;4.03;;
58354;SDS011;44160;49.080;19.302;2023-05-10T05:12:44;8.63;;;3.75;;
58354;SDS011;44160;49.080;19.302;2023-05-10T05:15:10;9.77;;;3.17;;
58354;SDS011;44160;49.080;19.302;2023-05-10T05:17:36;10.40;;;4.50;;
58354;SDS011;44160;49.080;19.302;2023-05-10T05:20:03;10.65;;;4.47;;
58354;SDS011;44160;49.080;19.302;2023-05-10T05:22:29;14.77;;;3.97;;
58354;SDS011;44160;49.080;19.302;2023-05-10T05:24:55;8.00;;;3.17;;
58354;SDS011;44160;49.080;19.302;2023-05-10T05:27:22;4.68;;;3.40;;
58354;SDS011;44160;49.080;19.302;2023-05-10T05:29:52;10.93;;;4.35;;
58354;SDS011;44160;49.080;19.302;2023-05-10T05:32:18;6.72;;;3.63;;
58354;SDS011;44160;49.080;19.302;2023-05-10T05:34:45;11.40;;;3.90;;
58354;SDS011;44160;49.080;19.302;2023-05-10T05:37:18;6.97;;;3.45;;
58354;SDS011;44160;49.080;19.302;2023-05-10T05:39:45;9.63;;;3.25;;
58354;SDS011;44160;49.080;19.302;2023-05-10T05:42:11;9.52;;;3.17;;
58354;SDS011;44160;49.080;19.302;2023-05-10T05:44:38;7.38;;;3.60;;
58354;SDS011;44160;49.080;19.302;2023-05-10T05:47:04;5.45;;;3.83;;
58354;SDS011;44160;49.080;19.302;2023-05-10T05:49:30;15.93;;;9.38;;
58354;SDS011;44160;49.080;19.302;2023-05-10T05:51:59;8.57;;;3.97;;
58354;SDS011;44160;49.080;19.302;2023-05-10T05:54:26;6.18;;;3.17;;
58354;SDS011;44160;49.080;19.302;2023-05-10T05:56:59;4.28;;;2.90;;
58354;SDS011;44160;49.080;19.302;2023-05-10T05:59:25;9.15;;;3.60;;
58354;SDS011;44160;49.080;19.302;2023-05-10T06:01:52;6.72;;;3.88;;
58354;SDS011;44160;49.080;19.302;2023-05-10T06:04:18;5.57;;;3.50;;
58354;SDS011;44160;49.080;19.302;2023-05-10T06:06:44;8.77;;;4.13;;
58354;SDS011;44160;49.080;19.302;2023-05-10T06:09:11;8.63;;;3.60;;
58354;SDS011;44160;49.080;19.302;2023-05-10T06:11:37;10.20;;;3.88;;
58354;SDS011;44160;49.080;19.302;2023-05-10T06:14:04;15.13;;;3.17;;
58354;SDS011;44160;49.080;19.302;2023-05-10T06:16:32;6.93;;;3.30;;
58354;SDS011;44160;49.080;19.302;2023-05-10T06:18:58;7.40;;;3.95;;
58354;SDS011;44160;49.080;19.302;2023-05-10T06:21:24;6.38;;;2.80;;
58354;SDS011;44160;49.080;19.302;2023-05-10T06:23:50;7.78;;;4.22;;
58354;SDS011;44160;49.080;19.302;2023-05-10T06:26:16;7.05;;;2.97;;
58354;SDS011;44160;49.080;19.302;2023-05-10T06:28:42;6.63;;;3.33;;
58354;SDS011;44160;49.080;19.302;2023-05-10T06:31:08;6.60;;;2.67;;
58354;SDS011;44160;49.080;19.302;2023-05-10T06:33:36;4.57;;;3.60;;
58354;SDS011;44160;49.080;19.302;2023-05-10T06:36:02;5.10;;;3.10;;
58354;SDS011;44160;49.080;19.302;2023-05-10T06:38:28;5.05;;;2.83;;
58354;SDS011;44160;49.080;19.302;2023-05-10T06:40:55;9.40;;;2.85;;
58354;SDS011;44160;49.080;19.302;2023-05-10T06:43:21;6.07;;;3.33;;
58354;SDS011;44160;49.080;19.302;2023-05-10T06:45:50;6.47;;;2.85;;
58354;SDS011;44160;49.080;19.302;2023-05-10T06:48:17;4.90;;;2.20;;
58354;SDS011;44160;49.080;19.302;2023-05-10T06:50:43;8.98;;;3.15;;
58354;SDS011;44160;49.080;19.302;2023-05-10T06:53:09;4.28;;;2.80;;
58354;SDS011;44160;49.080;19.302;2023-05-10T06:55:37;5.63;;;2.88;;
58354;SDS011;44160;49.080;19.302;2023-05-10T06:58:03;7.65;;;5.32;;
58354;SDS011;44160;49.080;19.302;2023-05-10T07:00:29;4.82;;;3.00;;
58354;SDS011;44160;49.080;19.302;2023-05-10T07:02:55;5.43;;;3.40;;
58354;SDS011;44160;49.080;19.302;2023-05-10T07:05:21;7.70;;;3.65;;
58354;SDS011;44160;49.080;19.302;2023-05-10T07:07:47;8.50;;;3.45;;
58354;SDS011;44160;49.080;19.302;2023-05-10T07:10:13;6.75;;;3.05;;
58354;SDS011;44160;49.080;19.302;2023-05-10T07:12:39;4.70;;;3.30;;
58354;SDS011;44160;49.080;19.302;2023-05-10T07:15:06;6.80;;;3.00;;
58354;SDS011;44160;49.080;19.302;2023-05-10T07:17:32;4.95;;;2.60;;
58354;SDS011;44160;49.080;19.302;2023-05-10T07:19:58;7.15;;;2.88;;
58354;SDS011;44160;49.080;19.302;2023-05-10T07:22:25;6.95;;;3.63;;
58354;SDS011;44160;49.080;19.302;2023-05-10T07:24:51;8.07;;;2.70;;
58354;SDS011;44160;49.080;19.302;2023-05-10T07:27:19;6.18;;;2.58;;
58354;SDS011;44160;49.080;19.302;2023-05-10T07:29:45;4.80;;;2.58;;
58354;SDS011;44160;49.080;19.302;2023-05-10T07:32:11;6.90;;;2.63;;
58354;SDS011;44160;49.080;19.302;2023-05-10T07:34:37;7.68;;;4.63;;
58354;SDS011;44160;49.080;19.302;2023-05-10T07:37:03;2.75;;;2.03;;
58354;SDS011;44160;49.080;19.302;2023-05-10T07:39:31;2.35;;;1.83;;
58354;SDS011;44160;49.080;19.302;2023-05-10T07:41:57;4.25;;;2.28;;
58354;SDS011;44160;49.080;19.302;2023-05-10T07:44:30;5.60;;;3.03;;
58354;SDS011;44160;49.080;19.302;2023-05-10T07:46:56;3.97;;;2.85;;
58354;SDS011;44160;49.080;19.302;2023-05-10T07:49:22;7.18;;;2.17;;
58354;SDS011;44160;49.080;19.302;2023-05-10T07:51:51;9.88;;;2.00;;
58354;SDS011;44160;49.080;19.302;2023-05-10T07:54:17;3.05;;;2.00;;
58354;SDS011;44160;49.080;19.302;2023-05-10T07:56:43;4.78;;;1.77;;
58354;SDS011;44160;49.080;19.302;2023-05-10T07:59:14;4.55;;;1.75;;
58354;SDS011;44160;49.080;19.302;2023-05-10T08:01:43;2.05;;;1.48;;
58354;SDS011;44160;49.080;19.302;2023-05-10T08:04:09;2.60;;;1.88;;
58354;SDS011;44160;49.080;19.302;2023-05-10T08:06:36;2.33;;;1.70;;
58354;SDS011;44160;49.080;19.302;2023-05-10T08:09:02;3.45;;;2.17;;
58354;SDS011;44160;49.080;19.302;2023-05-10T08:11:28;4.10;;;2.13;;
58354;SDS011;44160;49.080;19.302;2023-05-10T08:13:54;2.78;;;1.70;;
58354;SDS011;44160;49.080;19.302;2023-05-10T08:16:24;4.57;;;2.28;;
58354;SDS011;44160;49.080;19.302;2023-05-10T08:18:50;3.03;;;2.00;;
58354;SDS011;44160;49.080;19.302;2023-05-10T08:21:16;4.43;;;1.98;;
58354;SDS011;44160;49.080;19.302;2023-05-10T08:23:45;4.13;;;2.20;;
58354;SDS011;44160;49.080;19.302;2023-05-10T08:26:11;5.40;;;2.30;;
58354;SDS011;44160;49.080;19.302;2023-05-10T08:28:43;2.97;;;2.22;;
58354;SDS011;44160;49.080;19.302;2023-05-10T08:31:09;3.45;;;1.75;;
58354;SDS011;44160;49.080;19.302;2023-05-10T08:33:35;4.13;;;1.77;;
58354;SDS011;44160;49.080;19.302;2023-05-10T08:36:01;3.55;;;1.50;;
58354;SDS011;44160;49.080;19.302;2023-05-10T08:38:27;2.78;;;1.58;;
58354;SDS011;44160;49.080;19.302;2023-05-10T08:40:54;2.80;;;2.17;;
58354;SDS011;44160;49.080;19.302;2023-05-10T08:45:50;2.95;;;1.70;;
58354;SDS011;44160;49.080;19.302;2023-05-10T08:48:20;3.17;;;1.90;;
58354;SDS011;44160;49.080;19.302;2023-05-10T08:50:52;2.95;;;1.77;;
58354;SDS011;44160;49.080;19.302;2023-05-10T08:53:22;2.55;;;1.70;;
58354;SDS011;44160;49.080;19.302;2023-05-10T08:55:51;1.48;;;1.25;;
58354;SDS011;44160;49.080;19.302;2023-05-10T08:58:18;2.47;;;1.55;;
58354;SDS011;44160;49.080;19.302;2023-05-10T09:00:45;3.28;;;1.67;;
58354;SDS011;44160;49.080;19.302;2023-05-10T09:03:11;2.30;;;1.58;;
58354;SDS011;44160;49.080;19.302;2023-05-10T09:05:39;4.22;;;1.90;;
58354;SDS011;44160;49.080;19.302;2023-05-10T09:08:06;2.25;;;1.50;;
58354;SDS011;44160;49.080;19.302;2023-05-10T09:10:34;1.45;;;1.20;;
58354;SDS011;44160;49.080;19.302;2023-05-10T09:13:00;4.38;;;1.50;;
58354;SDS011;44160;49.080;19.302;2023-05-10T09:15:27;3.15;;;1.10;;
58354;SDS011;44160;49.080;19.302;2023-05-10T09:17:54;2.40;;;1.20;;
58354;SDS011;44160;49.080;19.302;2023-05-10T09:20:20;2.97;;;1.80;;
58354;SDS011;44160;49.080;19.302;2023-05-10T09:22:47;1.48;;;1.15;;
58354;SDS011;44160;49.080;19.302;2023-05-10T09:25:14;2.58;;;1.33;;
58354;SDS011;44160;49.080;19.302;2023-05-10T09:27:41;1.77;;;1.30;;
58354;SDS011;44160;49.080;19.302;2023-05-10T09:30:10;1.08;;;0.98;;
58354;SDS011;44160;49.080;19.302;2023-05-10T09:32:36;1.35;;;1.10;;
58354;SDS011;44160;49.080;19.302;2023-05-10T09:35:06;2.17;;;1.20;;
58354;SDS011;44160;49.080;19.302;2023-05-10T09:37:33;1.85;;;1.25;;
58354;SDS011;44160;49.080;19.302;2023-05-10T09:39:59;2.03;;;1.05;;
58354;SDS011;44160;49.080;19.302;2023-05-10T09:42:25;2.92;;;1.27;;
58354;SDS011;44160;49.080;19.302;2023-05-10T09:44:51;1.65;;;1.30;;
58354;SDS011;44160;49.080;19.302;2023-05-10T09:47:17;2.08;;;1.25;;
58354;SDS011;44160;49.080;19.302;2023-05-10T09:49:52;1.95;;;1.25;;
58354;SDS011;44160;49.080;19.302;2023-05-10T09:52:23;1.15;;;1.05;;
58354;SDS011;44160;49.080;19.302;2023-05-10T09:54:53;1.23;;;1.02;;
58354;SDS011;44160;49.080;19.302;2023-05-10T09:57:23;1.70;;;1.23;;
58354;SDS011;44160;49.080;19.302;2023-05-10T09:59:50;1.88;;;1.23;;
58354;SDS011;44160;49.080;19.302;2023-05-10T10:02:19;1.40;;;1.00;;
58354;SDS011;44160;49.080;19.302;2023-05-10T10:04:48;2.00;;;1.23;;
58354;SDS011;44160;49.080;19.302;2023-05-10T10:07:22;3.40;;;1.10;;
58354;SDS011;44160;49.080;19.302;2023-05-10T10:09:49;1.67;;;1.20;;
58354;SDS011;44160;49.080;19.302;2023-05-10T10:12:15;3.22;;;1.40;;
58354;SDS011;44160;49.080;19.302;2023-05-10T10:14:47;1.83;;;1.27;;
58354;SDS011;44160;49.080;19.302;2023-05-10T10:17:15;1.52;;;1.30;;
58354;SDS011;44160;49.080;19.302;2023-05-10T10:19:43;2.20;;;1.23;;
58354;SDS011;44160;49.080;19.302;2023-05-10T10:22:10;1.70;;;1.25;;
58354;SDS011;44160;49.080;19.302;2023-05-10T10:24:40;2.10;;;1.60;;
58354;SDS011;44160;49.080;19.302;2023-05-10T10:27:19;3.03;;;1.20;;
58354;SDS011;44160;49.080;19.302;2023-05-10T10:29:50;3.97;;;1.50;;
58354;SDS011;44160;49.080;19.302;2023-05-10T10:34:45;6.97;;;1.48;;
58354;SDS011;44160;49.080;19.302;2023-05-10T10:37:11;1.80;;;1.48;;
58354;SDS011;44160;49.080;19.302;2023-05-10T10:39:37;4.93;;;1.42;;
58354;SDS011;44160;49.080;19.302;2023-05-10T10:42:04;4.53;;;1.48;;
58354;SDS011;44160;49.080;19.302;2023-05-10T10:44:36;5.65;;;1.50;;
58354;SDS011;44160;49.080;19.302;2023-05-10T10:47:07;5.32;;;1.90;;
58354;SDS011;44160;49.080;19.302;2023-05-10T10:49:38;3.45;;;1.60;;
58354;SDS011;44160;49.080;19.302;2023-05-10T10:52:23;3.88;;;1.73;;
58354;SDS011;44160;49.080;19.302;2023-05-10T10:54:57;4.57;;;1.60;;
58354;SDS011;44160;49.080;19.302;2023-05-10T10:57:24;2.22;;;1.80;;
58354;SDS011;44160;49.080;19.302;2023-05-10T10:59:51;5.88;;;2.13;;
58354;SDS011;44160;49.080;19.302;2023-05-10T11:02:34;2.05;;;1.33;;
58354;SDS011;44160;49.080;19.302;2023-05-10T11:07:58;3.33;;;1.88;;
58354;SDS011;44160;49.080;19.302;2023-05-10T11:10:25;6.38;;;2.25;;
58354;SDS011;44160;49.080;19.302;2023-05-10T11:15:18;6.22;;;1.48;;
58354;SDS011;44160;49.080;19.302;2023-05-10T11:17:45;4.75;;;1.73;;
58354;SDS011;44160;49.080;19.302;2023-05-10T11:20:18;4.43;;;1.60;;
58354;SDS011;44160;49.080;19.302;2023-05-10T11:22:53;3.85;;;1.30;;
58354;SDS011;44160;49.080;19.302;2023-05-10T11:25:20;1.88;;;1.52;;
58354;SDS011;44160;49.080;19.302;2023-05-10T11:27:49;3.17;;;1.60;;
58354;SDS011;44160;49.080;19.302;2023-05-10T11:30:16;2.67;;;1.60;;
58354;SDS011;44160;49.080;19.302;2023-05-10T11:32:45;4.78;;;1.60;;
58354;SDS011;44160;49.080;19.302;2023-05-10T11:35:11;4.40;;;1.58;;
58354;SDS011;44160;49.080;19.302;2023-05-10T11:37:41;5.53;;;1.50;;
58354;SDS011;44160;49.080;19.302;2023-05-10T11:40:09;1.73;;;1.25;;
58354;SDS011;44160;49.080;19.302;2023-05-10T11:42:38;4.50;;;1.30;;
58354;SDS011;44160;49.080;19.302;2023-05-10T11:45:04;4.38;;;1.23;;
58354;SDS011;44160;49.080;19.302;2023-05-10T11:47:33;2.60;;;1.92;;
58354;SDS011;44160;49.080;19.302;2023-05-10T11:50:00;7.80;;;2.13;;
58354;SDS011;44160;49.080;19.302;2023-05-10T11:52:26;4.28;;;1.90;;
58354;SDS011;44160;49.080;19.302;2023-05-10T11:54:54;3.17;;;1.80;;
58354;SDS011;44160;49.080;19.302;2023-05-10T11:57:25;6.45;;;1.58;;
58354;SDS011;44160;49.080;19.302;2023-05-10T11:59:56;4.40;;;1.70;;
58354;SDS011;44160;49.080;19.302;2023-05-10T12:02:22;4.18;;;1.83;;
58354;SDS011;44160;49.080;19.302;2023-05-10T12:04:48;3.83;;;1.65;;
58354;SDS011;44160;49.080;19.302;2023-05-10T12:07:15;1.85;;;1.52;;
58354;SDS011;44160;49.080;19.302;2023-05-10T12:09:44;2.42;;;1.60;;
58354;SDS011;44160;49.080;19.302;2023-05-10T12:12:15;2.42;;;1.45;;
58354;SDS011;44160;49.080;19.302;2023-05-10T12:14:42;2.78;;;1.65;;
58354;SDS011;44160;49.080;19.302;2023-05-10T12:17:11;3.25;;;1.67;;
58354;SDS011;44160;49.080;19.302;2023-05-10T12:19:38;5.03;;;1.55;;
58354;SDS011;44160;49.080;19.302;2023-05-10T12:22:05;1.80;;;1.52;;
58354;SDS011;44160;49.080;19.302;2023-05-10T12:24:34;2.13;;;1.55;;
58354;SDS011;44160;49.080;19.302;2023-05-10T12:27:04;2.72;;;1.63;;
58354;SDS011;44160;49.080;19.302;2023-05-10T12:29:30;5.27;;;1.40;;
58354;SDS011;44160;49.080;19.302;2023-05-10T12:31:58;2.47;;;1.35;;
58354;SDS011;44160;49.080;19.302;2023-05-10T12:34:33;1.95;;;1.48;;
58354;SDS011;44160;49.080;19.302;2023-05-10T12:37:01;3.63;;;1.42;;
58354;SDS011;44160;49.080;19.302;2023-05-10T12:39:40;2.63;;;1.67;;
58354;SDS011;44160;49.080;19.302;2023-05-10T12:42:06;2.20;;;1.67;;
58354;SDS011;44160;49.080;19.302;2023-05-10T12:44:32;2.38;;;1.30;;
58354;SDS011;44160;49.080;19.302;2023-05-10T12:46:59;3.72;;;1.60;;
58354;SDS011;44160;49.080;19.302;2023-05-10T12:49:25;3.08;;;1.60;;
58354;SDS011;44160;49.080;19.302;2023-05-10T12:51:51;2.15;;;1.67;;
58354;SDS011;44160;49.080;19.302;2023-05-10T12:54:17;2.38;;;1.60;;
58354;SDS011;44160;49.080;19.302;2023-05-10T12:56:45;5.32;;;1.30;;
58354;SDS011;44160;49.080;19.302;2023-05-10T12:59:11;2.28;;;1.50;;
58354;SDS011;44160;49.080;19.302;2023-05-10T13:01:37;2.78;;;1.65;;
58354;SDS011;44160;49.080;19.302;2023-05-10T13:04:04;3.78;;;1.70;;
58354;SDS011;44160;49.080;19.302;2023-05-10T13:06:32;2.20;;;1.50;;
58354;SDS011;44160;49.080;19.302;2023-05-10T13:09:00;3.75;;;1.60;;
58354;SDS011;44160;49.080;19.302;2023-05-10T13:11:26;4.32;;;1.80;;
58354;SDS011;44160;49.080;19.302;2023-05-10T13:13:52;3.00;;;1.40;;
58354;SDS011;44160;49.080;19.302;2023-05-10T13:16:18;4.13;;;1.75;;
58354;SDS011;44160;49.080;19.302;2023-05-10T13:18:44;2.00;;;1.42;;
58354;SDS011;44160;49.080;19.302;2023-05-10T13:21:10;2.22;;;1.33;;
58354;SDS011;44160;49.080;19.302;2023-05-10T13:23:36;4.10;;;1.42;;
58354;SDS011;44160;49.080;19.302;2023-05-10T13:26:02;3.15;;;1.70;;
58354;SDS011;44160;49.080;19.302;2023-05-10T13:28:34;1.33;;;1.23;;
58354;SDS011;44160;49.080;19.302;2023-05-10T13:31:00;2.13;;;1.35;;
58354;SDS011;44160;49.080;19.302;2023-05-10T13:33:26;2.40;;;1.60;;
58354;SDS011;44160;49.080;19.302;2023-05-10T13:35:52;1.55;;;1.40;;
58354;SDS011;44160;49.080;19.302;2023-05-10T13:38:18;1.70;;;1.30;;
58354;SDS011;44160;49.080;19.302;2023-05-10T13:40:44;2.30;;;1.55;;
58354;SDS011;44160;49.080;19.302;2023-05-10T13:43:10;2.10;;;1.30;;
58354;SDS011;44160;49.080;19.302;2023-05-10T13:45:36;4.25;;;2.03;;
58354;SDS011;44160;49.080;19.302;2023-05-10T13:48:02;2.72;;;1.88;;
58354;SDS011;44160;49.080;19.302;2023-05-10T13:50:31;5.25;;;1.65;;
58354;SDS011;44160;49.080;19.302;2023-05-10T13:52:57;2.35;;;1.55;;
58354;SDS011;44160;49.080;19.302;2023-05-10T13:55:23;2.47;;;1.75;;
58354;SDS011;44160;49.080;19.302;2023-05-10T13:57:49;2.58;;;1.55;;
58354;SDS011;44160;49.080;19.302;2023-05-10T14:00:19;2.60;;;2.00;;
58354;SDS011;44160;49.080;19.302;2023-05-10T14:02:45;2.63;;;1.67;;
58354;SDS011;44160;49.080;19.302;2023-05-10T14:05:20;1.88;;;1.60;;
58354;SDS011;44160;49.080;19.302;2023-05-10T14:07:46;2.30;;;1.63;;
58354;SDS011;44160;49.080;19.302;2023-05-10T14:10:12;2.13;;;1.42;;
58354;SDS011;44160;49.080;19.302;2023-05-10T14:12:40;3.72;;;2.42;;
58354;SDS011;44160;49.080;19.302;2023-05-10T14:15:07;4.72;;;1.80;;
58354;SDS011;44160;49.080;19.302;2023-05-10T14:17:35;5.50;;;2.00;;
58354;SDS011;44160;49.080;19.302;2023-05-10T14:20:02;2.17;;;1.42;;
58354;SDS011;44160;49.080;19.302;2023-05-10T14:22:28;3.13;;;1.90;;
58354;SDS011;44160;49.080;19.302;2023-05-10T14:24:55;2.63;;;1.45;;
58354;SDS011;44160;49.080;19.302;2023-05-10T14:27:21;6.35;;;1.65;;
58354;SDS011;44160;49.080;19.302;2023-05-10T14:29:48;2.58;;;1.55;;
58354;SDS011;44160;49.080;19.302;2023-05-10T14:32:17;2.40;;;1.52;;
58354;SDS011;44160;49.080;19.302;2023-05-10T14:34:44;2.75;;;1.30;;
58354;SDS011;44160;49.080;19.302;2023-05-10T14:37:16;6.40;;;2.08;;
58354;SDS011;44160;49.080;19.302;2023-05-10T14:39:45;3.40;;;1.60;;
58354;SDS011;44160;49.080;19.302;2023-05-10T14:42:12;1.60;;;1.40;;
58354;SDS011;44160;49.080;19.302;2023-05-10T14:44:38;3.38;;;2.05;;
58354;SDS011;44160;49.080;19.302;2023-05-10T14:47:04;2.70;;;1.67;;
58354;SDS011;44160;49.080;19.302;2023-05-10T14:49:41;2.58;;;1.75;;
58354;SDS011;44160;49.080;19.302;2023-05-10T14:52:07;2.78;;;1.90;;
58354;SDS011;44160;49.080;19.302;2023-05-10T14:54:34;2.63;;;1.30;;
58354;SDS011;44160;49.080;19.302;2023-05-10T14:57:00;3.75;;;1.67;;
58354;SDS011;44160;49.080;19.302;2023-05-10T14:59:26;2.03;;;1.35;;
58354;SDS011;44160;49.080;19.302;2023-05-10T15:01:52;2.10;;;1.30;;
58354;SDS011;44160;49.080;19.302;2023-05-10T15:04:19;2.58;;;1.60;;